Timeline UpdatesTrip UpdatesNews PostsPvt Posts♥♥Travel TipsAdmin PostsConv PostsFollowed PostsChat RequestsBlog PostsPNR Posts

Disclaimer
Search
 
 
Wed Oct 22, 2014 01:28:48 ISTHomeTrainsΣChainsAtlasPNRForumGalleryNewsFAQTripsMembersLoginFeedback
No Recent News for this Train
Other Trains in the News **new
Latest...
Change in timings ex - Originating and Terminating Station ex 01.09.2014
Sun Aug 31, 2014 (07:08AM)
⇐ Return Journey: Train# 15484

14083⇒15483/Sikkim Mahananda Express

NO Time-Table Change.
Sep 29 (1:56PM)
Change Departure Station:
Change Arrival Station:
Post a Train Travel TipPost a Train Travel Tip **new
Post a Comment/Question/Picture/VideoPost a Comment/Question/Picture/Video
Pantry/Catering
✓ Pantry Car Avbl
✓ Catering Avbl
RSA - Rake Sharing
Rake/Coach Composition
LOCO-SLR-GS-GS-GS-AB-B1-PC-S11-S10-S9-S8-S7-S6-S5-S4-S3-S2-S1-GS-GS-GS-SLR
Loco
SGUJ WDP-4 (APDJ to PNBE), GZB/MGS WAP-4 (PNBE to DLI)
News    PNR    Forum    Time-Table    Availability    Fare Chart    Map    Arr/Dep History    Trips    Gallery    ΣChains    X/O    Timeline    
Travel Time: 10h 15m    16 halts    Distance: 435 km    Avg Speed: 42 km/hr
Type: Mail/Express
Zone: NFR/Northeast Frontier
Departs @ 12:25 (Avg 3h 13m late)
Platform# 5
SMTWTFS
Kanpur Central/CNB 
Arrives @ 22:40 (Avg 2h 36m late)
Platform# 11
SMTWTFS
Old Delhi Junction/DLI 

16 halts. 64 intermediate Stations between Kanpur Central and Old Delhi Junction

Show ALL intermediate Stations  

#TrkCodeStation NameX/OArrivesAvgDepartsAvgHaltPFDay#KmSpeedElevZoneAddress
1|--|APDJAlipur Duar Junction (3)  -09:50+2:1611-1217.17053mNFRDist - Alipurduar, West Bengal
2|--|HSAHasimara (3)X  10:20+2:2510:22+2:262m--1-1182.363123mNFRDist - Alipurduar, West Bengal
3|--|DLODalgaon (3)  10:46+2:3010:47+2:311m11-1157.038 NFRDist : Alipurduar, West Bengal
4|--|BNVBinnaguri (3)  11:01+2:2511:02+2:151m--1-1148.165132mNFRDist : jalpaiguri, West Bengal
5|--|NMZNew Mal Junction (3)  11:43+2:0311:48+2:025m--1-1103.743161mNFRDist - Jalpaiguri, West Bengal
6|--|SGUJSiliguri Junction (5)X  12:55+2:0013:00+1:485m--1-1055.912120mNFRDist-Darjeeling Siliguri-734001, West Bengal
7|--|NJPNew Jalpaiguri Junction (8)X  13:35+2:1313:55+2:1620m31-1048.777114mNFRCity-Siliguri . Dist-Jalpaiguri, West Bengal
8%==%AUBAluabari Road (2)O  14:39+2:0714:41+1:572m21-991.9630mNFRDist - uttar Dinajpur, West Bengal
9%==%KNEKishanGanj (3)O  15:10+2:0415:15+2:045m21-961.37152mNFRKishanganj, Bihar
10%==%DLKDalkhola (3)X  15:39+2:0515:40+2:061m101-932.85844mNFRDalkola, West Bengal
11%==%BOEBarsoi Junction (3)X  16:10+2:1416:12+2:152m--1-903.85337mNFRdist- katihar, Bihar
12%==%AZRAzamnagar Road (3)X  16:27+2:1316:28+2:141m--1-890.43134mNFRAzamnagar, Bihar
13%--%LAVLabha (2)  17:10+2:2517:11+2:261m11-868.71529mNFRDist : Katihar, Bihar
14%--%KIRKatihar Junction (7)X  18:45+2:0819:00+2:0515m51-845.84635mNFRKatihar 854105, Bihar
15%-=%SMOSemapurX  19:15+1:5419:16+1:541m--1-834.26535mECRKatihar, Bihar
16%==%CRRKaragola Road  19:26+1:5919:27+2:011m--1-823.57836mECRLachhmipur, Bihar
17%=-%KUEKurselaX  19:40+2:1119:41+2:131m--1-806.54831mECRNH 31, Bihar
18%==%NNANaugachia (3)X  20:04+2:1920:05+2:191m--1-788.06437mECRBhagalpur, Bihar
19%==%THBThana Bihpur Junction (3)  20:20+2:2320:21+2:241m--1-772.15139mECRThana Bihpur, Bihar
20%==%NNRNarayanpur (2)X  20:30+2:2120:31+2:291m--1-764.55439mECRNarayanpur, Bihar
21%==%PSRPasraha (3)  20:44+2:2620:45+2:311m--1-752.85341mECRPasraha, Bihar
22%==%MSKMahes Khunt (2)X  20:59+2:3321:00+2:361m--1-740.55737mECRMaheshkhunt, Bihar
23%==%MNEMansi Junction (4)XO  21:11+2:4021:12+2:421m--1-730.13343mECRMansi, Bihar
24%=-|KGGKhagaria Junction (3)X  21:28+2:4321:29+2:451m--1-721.36243mECRKhagaria, Bihar
25%==%SKJSahibpur Kamal Junction (2)  21:41+2:4721:42+2:411m--1-708.94241mECRShahpur Kamal, Bihar
26%==%LKNLakhminia (3)X  21:56+2:4221:57+2:431m--1-699.23645mECRBegusarai, Bihar
27%==%BGSBegusarai (3)  22:27+2:3022:28+2:291m--1-681.42246mECRBegusarai, Bihar
28%--/BJUBarauni Junction (9)X  23:05+2:1823:10+2:205m11-668.02849mECRBegusarai, Bihar
29/--/MKAMokama Junction (4)  23:54+2:4023:56+2:412m31-647.38848mECRPatna, Bihar
30/==/BKPBakhtiyarpur Junction (5)X  00:26+2:3400:28+2:352m--2-603.44851mECRPatna, Bihar
31/==/PNBEPatna Junction (10)X  01:25+2:1601:50+2:2225m42-558.03557mECRPatna 800001, Bihar
32/==/DNRDanapur (5)  02:06+2:1602:08+2:162m--2-548.79158mECRKhagaul, Bihar
33/==/ARAAra Junction (3)X  02:34+2:5202:36+2:522m--2-509.17163mECRDistt: Bhojpur Ph 06182-233411, Bihar
34/==/BXRBuxar (3)X  03:34+2:4603:36+2:422m22-440.64767mECRBuxar, Bihar
35/==/MGSMughal Sarai Junction (8)  05:35+2:0305:45+2:1110m42-346.74583mECRDistt: Chandauli Pin 232101, Uttar Pradesh
36/==/MZPMirzapur (3)XO  07:09+2:4607:10+2:491m--2-283.54088mNCRMirzapur, Uttar Pradesh
37/==/BDLVindhyachal (3)  07:21+2:3907:22+2:421m--2-276.27788mNCRMirzapur, Uttar Pradesh
38/==/NYNNaini Junction (4)  08:20+3:2508:22+3:262m22-201.42498mNCRAllahabad, Uttar Pradesh
39/==/ALDAllahabad Junction (10)XOO  08:40+3:3608:55+3:4315m32-194.364100mNCRAllahabad 211003, Uttar Pradesh
40/==/FTPFatehpur (3)  10:44+3:0210:45+3:031m--2-77.652120mNCRFatehpur, Uttar Pradesh
41/==/CNBKanpur Central (10)»X  12:15+3:0912:25+3:1310m520.029128mNCRKANPUR-208 001, Uttar Pradesh
42/==/PNKPanki (3)XO  12:49+3:0112:50+3:011m--211.537129mNCRKANPUR-208 020, Uttar Pradesh
43/==/RURARura (4)  13:43+2:2813:44+2:291m--244.357137mNCRJhinjhak, Uttar Pradesh
44/==/JJKJhinjhak (3)  14:04+2:3114:05+2:331m3263.470140mNCRAuraiya, Uttar Pradesh
45/==/PHDPhaphund (4)  14:22+2:4614:23+2:491m--283.263146mNCRdist. Auraiya, Uttar Pradesh
46/==/ULDAchalda (3)X  14:39+2:3114:40+2:361m--2100.065147mNCRDist. Auraiya(05688-1072), Uttar Pradesh
47/==/BNTBharthana (3)X  14:58+2:2914:59+2:351m--2119.552147mNCRBharthana, Uttar Pradesh
48/==/ETWEtawah (5)  15:22+2:4215:23+2:431m22139.474154mNCRDistt. Etawah, Uttar Pradesh
49/==/SKBShikohabad Junction (4)  16:08+2:4916:09+2:511m32194.857166mNCRDistrict Firozabad, Uttar Pradesh
50/==/FZDFirozabad (4)XO  16:30+3:2916:31+3:311m32214.616164mNCRFirozabad, Uttar Pradesh
51/==/TDLTundla Junction (5)XO  17:35+2:5517:45+2:5410m22231.270167mNCRDistt.Firozabad, Uttar Pradesh
52/==/JLSJalesar Road (1)X  18:09+2:2318:10+2:241m12259.155172mNCRMDR 106W, Uttar Pradesh
53/==/HRSHathras Junction (3)X  18:32+2:4918:33+2:491m--2279.282183mNCRMahamaya Nagar(05722-242803), Uttar Pradesh
54/==/ALJNAligarh Junction (4)XO  18:55+2:3819:00+2:385m22309.349192mNCRAligarh, Uttar Pradesh
55/==/KRJKhurja Junction (4)XO  19:53+1:1919:58+1:195m--2352.835199mNCRBulandshahr, Uttar Pradesh
56/==/GZBGhaziabad Junction (6)X  21:45+1:5021:47+1:502m32415.548217mNRGhaziabad, Uttar Pradesh
57/==/DSAShahdara Junction (4)  22:04+3722:05+371m--2429.111212mNRCircular Rd, Delhi NCT
58/==/DLIOld Delhi Junction (16)•  22:40+2:36-112435.4-219mNRNear Chandni Chowk Metro Station, Delhi NCT
Scroll to Top
Scroll to Bottom